createdAt,value
2023-03-21T00:01:35.474Z,97915.69
2023-03-21T00:04:03.298Z,97914.09
2023-03-21T00:06:31.334Z,97906.88
2023-03-21T00:08:58.577Z,97910.78
2023-03-21T00:11:25.992Z,97913.47
2023-03-21T00:13:53.777Z,97917.69
2023-03-21T00:16:23.203Z,97915.03
2023-03-21T00:18:54.965Z,97912.47
2023-03-21T00:21:41.046Z,97907.91
2023-03-21T00:24:10.083Z,97893.72
2023-03-21T00:26:38.485Z,97904.13
2023-03-21T00:29:06.085Z,97885.69
2023-03-21T00:31:33.349Z,97886.47
2023-03-21T00:34:01.746Z,97879.22
2023-03-21T00:36:31.167Z,97880.47
2023-03-21T00:39:01.128Z,97885.84
2023-03-21T00:41:41.414Z,97887.38
2023-03-21T00:44:11.857Z,97885.50
2023-03-21T00:46:57.420Z,97885.94
2023-03-21T00:49:27.928Z,97877.56
2023-03-21T00:51:57.298Z,97876.47
2023-03-21T00:54:27.335Z,97876.47
2023-03-21T00:56:54.586Z,97880.72
2023-03-21T00:59:21.845Z,97881.50
2023-03-21T01:01:49.150Z,97883.06
2023-03-21T01:04:16.970Z,97873.91
2023-03-21T01:06:44.844Z,97873.25
2023-03-21T01:09:15.661Z,97875.94
2023-03-21T01:11:43.279Z,97860.97
2023-03-21T01:14:21.941Z,97862.06
2023-03-21T01:16:51.903Z,97860.50
2023-03-21T01:19:50.754Z,97864.41
2023-03-21T01:22:07.199Z,97867.09
2023-03-21T01:24:37.682Z,97877.81
2023-03-21T01:27:05.165Z,97870.09
2023-03-21T01:29:32.482Z,97870.56
2023-03-21T01:31:59.718Z,97866.66
2023-03-21T01:34:27.995Z,97871.22
2023-03-21T01:36:55.868Z,97869.78
2023-03-21T01:39:23.193Z,97861.31
2023-03-21T01:41:51.556Z,97862.88
2023-03-21T01:44:22.055Z,97857.19
2023-03-21T01:47:10.647Z,97864.41
2023-03-21T01:49:49.920Z,97860.63
2023-03-21T01:52:35.872Z,97861.88
2023-03-21T01:55:08.660Z,97857.28
2023-03-21T01:58:04.014Z,97857.75
2023-03-21T02:00:36.861Z,97856.19
2023-03-21T02:03:33.186Z,97848.91
2023-03-21T02:06:15.677Z,97857.09
2023-03-21T02:08:49.029Z,97855.66
2023-03-21T02:11:20.582Z,97841.91
2023-03-21T02:13:55.823Z,97849.28
2023-03-21T02:16:47.276Z,97842.34
2023-03-21T02:19:52.777Z,97840.91
2023-03-21T02:22:38.558Z,97852.44
2023-03-21T02:25:27.718Z,97852.09
2023-03-21T02:28:16.987Z,97843.72
2023-03-21T02:31:13.677Z,97844.94
2023-03-21T02:33:49.991Z,97842.72
2023-03-21T02:36:26.771Z,97845.84
2023-03-21T02:39:08.260Z,97844.28
2023-03-21T02:41:48.381Z,97835.13
2023-03-21T02:44:16.360Z,97827.09
2023-03-21T02:47:05.946Z,97834.47
2023-03-21T02:49:43.420Z,97829.19
2023-03-21T02:52:28.363Z,97828.44
2023-03-21T02:55:05.770Z,97833.13
2023-03-21T02:57:44.256Z,97823.28
2023-03-21T03:00:17.776Z,97828.44
2023-03-21T03:02:48.868Z,97823.63
2023-03-21T03:05:38.099Z,97827.88
2023-03-21T03:08:14.699Z,97824.84
2023-03-21T03:10:49.754Z,97819.94
2023-03-21T03:13:32.609Z,97815.81
2023-03-21T03:16:00.286Z,97819.25
2023-03-21T03:18:33.931Z,97823.84
2023-03-21T03:21:08.451Z,97821.84
2023-03-21T03:24:05.120Z,97815.03
2023-03-21T03:26:37.592Z,97818.81
2023-03-21T03:29:07.798Z,97804.19
2023-03-21T03:31:38.297Z,97812.09
2023-03-21T03:34:10.772Z,97814.69
2023-03-21T03:36:43.322Z,97811.91
2023-03-21T03:39:15.821Z,97813.56
2023-03-21T03:42:12.658Z,97805.84
2023-03-21T03:44:53.152Z,97809.50
2023-03-21T03:47:54.174Z,97804.03
2023-03-21T03:50:31.458Z,97814.28
2023-03-21T03:53:20.604Z,97815.28
2023-03-21T03:55:55.958Z,97824.00
2023-03-21T03:58:30.996Z,97808.09
2023-03-21T04:01:03.899Z,97812.53
2023-03-21T04:03:46.131Z,97813.53
2023-03-21T04:06:16.717Z,97802.19
2023-03-21T04:08:44.844Z,97807.31
2023-03-21T04:11:14.187Z,97809.41
2023-03-21T04:13:46.827Z,97809.94
2023-03-21T04:16:20.290Z,97814.72
2023-03-21T04:18:48.031Z,97813.34
2023-03-21T04:21:18.552Z,97810.06
2023-03-21T04:23:45.837Z,97814.50
2023-03-21T04:26:13.260Z,97805.50
2023-03-21T04:28:52.254Z,97810.69
2023-03-21T04:31:45.238Z,97809.41
2023-03-21T04:34:13.668Z,97805.41
2023-03-21T04:36:46.879Z,97802.53
2023-03-21T04:39:15.651Z,97798.53
2023-03-21T04:41:46.907Z,97792.59
2023-03-21T04:44:15.852Z,97797.47
2023-03-21T04:46:43.774Z,97789.94
2023-03-21T04:49:12.343Z,97788.97
2023-03-21T04:51:39.947Z,97794.50
2023-03-21T04:56:43.170Z,97786.81
2023-03-21T04:59:11.921Z,97783.91
2023-03-21T05:01:41.486Z,97789.44
2023-03-21T05:04:10.280Z,97789.94
2023-03-21T05:06:38.598Z,97778.50
2023-03-21T05:09:07.338Z,97776.72
2023-03-21T05:11:38.079Z,97781.84
2023-03-21T05:14:06.664Z,97784.34
2023-03-21T05:16:35.091Z,97779.47
2023-03-21T05:19:05.261Z,97779.28
2023-03-21T05:21:42.111Z,97776.69
2023-03-21T05:24:18.303Z,97775.69
2023-03-21T05:26:52.872Z,97772.66
2023-03-21T05:29:25.203Z,97769.31
2023-03-21T05:32:04.171Z,97771.72
2023-03-21T05:34:32.466Z,97770.63
2023-03-21T05:37:00.866Z,97773.03
2023-03-21T05:39:38.814Z,97759.22
2023-03-21T05:42:14.847Z,97760.50
2023-03-21T05:44:42.746Z,97764.13
2023-03-21T05:47:12.428Z,97758.03
2023-03-21T05:49:44.448Z,97750.06
2023-03-21T05:52:12.230Z,97744.81
2023-03-21T05:54:39.533Z,97745.72
2023-03-21T05:57:07.055Z,97748.13
2023-03-21T06:00:13.025Z,97748.28
2023-03-21T06:02:43.107Z,97751.47
2023-03-21T06:05:28.979Z,97753.53
2023-03-21T06:07:57.011Z,97752.03
2023-03-21T06:10:25.284Z,97750.97
2023-03-21T06:12:52.789Z,97740.63
2023-03-21T06:15:30.771Z,97743.00
2023-03-21T06:18:13.952Z,97736.19
2023-03-21T06:20:51.133Z,97732.81
2023-03-21T06:23:18.584Z,97732.91
2023-03-21T06:25:48.593Z,97734.53
2023-03-21T06:28:15.911Z,97735.75
2023-03-21T06:30:44.029Z,97740.47
2023-03-21T06:33:16.879Z,97732.06
2023-03-21T06:35:45.005Z,97726.69
2023-03-21T06:38:12.253Z,97727.97
2023-03-21T06:40:40.664Z,97728.03
2023-03-21T06:43:07.906Z,97721.91
2023-03-21T06:45:35.726Z,97722.31
2023-03-21T06:48:03.192Z,97717.31
2023-03-21T06:50:41.280Z,97714.25
2023-03-21T06:53:08.734Z,97718.91
2023-03-21T06:55:56.064Z,97707.72
2023-03-21T06:58:23.812Z,97708.53
2023-03-21T07:00:51.385Z,97705.84
2023-03-21T07:03:19.565Z,97700.06
2023-03-21T07:05:48.001Z,97698.94
2023-03-21T07:08:17.748Z,97704.38
2023-03-21T07:10:49.133Z,97706.34
2023-03-21T07:13:18.531Z,97693.19
2023-03-21T07:15:53.965Z,97707.13
2023-03-21T07:18:21.195Z,97700.16
2023-03-21T07:20:52.047Z,97694.34
2023-03-21T07:23:21.134Z,97695.50
2023-03-21T07:25:50.423Z,97697.09
2023-03-21T07:28:17.932Z,97691.28
2023-03-21T07:30:46.097Z,97687.00
2023-03-21T07:33:14.748Z,97700.56
2023-03-21T07:35:42.155Z,97697.06
2023-03-21T07:38:09.447Z,97697.47
2023-03-21T07:40:37.012Z,97691.66
2023-03-21T07:43:04.511Z,97697.84
2023-03-21T07:45:34.831Z,97694.00
2023-03-21T07:48:02.322Z,97685.84
2023-03-21T07:50:34.067Z,97693.97
2023-03-21T07:53:01.409Z,97685.44
2023-03-21T07:55:28.790Z,97683.13
2023-03-21T07:57:56.140Z,97687.00
2023-03-21T08:00:23.556Z,97686.63
2023-03-21T08:02:57.167Z,97685.06
2023-03-21T08:05:27.285Z,97676.53
2023-03-21T08:07:54.573Z,97683.09
2023-03-21T08:10:21.827Z,97682.31
2023-03-21T08:12:49.158Z,97685.81
2023-03-21T08:15:16.526Z,97685.81
2023-03-21T08:17:45.816Z,97674.59
2023-03-21T08:20:14.279Z,97674.97
2023-03-21T08:22:41.903Z,97678.06
2023-03-21T08:25:10.433Z,97673.00
2023-03-21T08:27:37.893Z,97674.16
2023-03-21T08:30:05.343Z,97675.31
2023-03-21T08:32:33.230Z,97669.91
2023-03-21T08:35:01.731Z,97668.72
2023-03-21T08:37:30.218Z,97664.84
2023-03-21T08:39:57.580Z,97666.78
2023-03-21T08:42:24.880Z,97661.34
2023-03-21T08:44:52.225Z,97654.34
2023-03-21T08:47:19.452Z,97660.53
2023-03-21T08:49:46.702Z,97657.06
2023-03-21T08:52:13.959Z,97652.81
2023-03-21T08:54:42.313Z,97651.69
2023-03-21T08:57:11.294Z,97652.06
2023-03-21T08:59:39.017Z,97643.53
2023-03-21T09:02:06.407Z,97648.59
2023-03-21T09:04:34.068Z,97649.00
2023-03-21T09:07:05.566Z,97649.38
2023-03-21T09:09:33.117Z,97644.34
2023-03-21T09:12:00.628Z,97644.75
2023-03-21T09:14:29.015Z,97643.97
2023-03-21T09:16:56.645Z,97642.41
2023-03-21T09:19:24.656Z,97639.31
2023-03-21T09:21:54.149Z,97639.72
2023-03-21T09:24:22.284Z,97643.59
2023-03-21T09:26:51.751Z,97643.19
2023-03-21T09:29:21.422Z,97643.97
2023-03-21T09:31:48.900Z,97644.72
2023-03-21T09:34:16.215Z,97642.81
2023-03-21T09:36:44.527Z,97639.31
2023-03-21T09:39:12.195Z,97636.19
2023-03-21T09:41:55.960Z,97633.84
2023-03-21T09:44:32.408Z,97635.75
2023-03-21T09:47:21.923Z,97638.84
2023-03-21T09:49:54.670Z,97634.19
2023-03-21T09:52:34.692Z,97639.63
2023-03-21T09:55:06.414Z,97631.84
2023-03-21T09:57:38.292Z,97635.31
2023-03-21T10:00:16.467Z,97634.53
2023-03-21T10:02:49.955Z,97638.03
2023-03-21T10:05:20.272Z,97623.28
2023-03-21T10:07:52.819Z,97627.16
2023-03-21T10:10:24.596Z,97622.47
2023-03-21T10:12:53.541Z,97620.91
2023-03-21T10:15:22.651Z,97614.28
2023-03-21T10:18:22.784Z,97610.00
2023-03-21T10:20:51.063Z,97607.69
2023-03-21T10:23:21.302Z,97607.66
2023-03-21T10:25:53.953Z,97608.81
2023-03-21T10:28:23.303Z,97601.00
2023-03-21T10:30:57.495Z,97609.16
2023-03-21T10:33:26.820Z,97615.38
2023-03-21T10:35:57.421Z,97609.56
2023-03-21T10:38:26.077Z,97605.25
2023-03-21T10:40:53.796Z,97597.09
2023-03-21T10:43:26.812Z,97604.09
2023-03-21T10:45:55.064Z,97601.75
2023-03-21T10:48:23.453Z,97601.34
2023-03-21T10:50:52.708Z,97597.09
2023-03-21T10:53:27.792Z,97595.91
2023-03-21T10:55:57.129Z,97601.34
2023-03-21T10:58:29.987Z,97599.81
2023-03-21T11:00:58.845Z,97595.13
2023-03-21T11:03:32.532Z,97586.63
2023-03-21T11:06:06.172Z,97583.91
2023-03-21T11:08:38.857Z,97593.25
2023-03-21T11:11:10.307Z,97580.50
2023-03-21T11:13:39.711Z,97590.22
2023-03-21T11:16:09.985Z,97588.66
2023-03-21T11:18:42.417Z,97582.50
2023-03-21T11:21:13.997Z,97590.28
2023-03-21T11:23:44.267Z,97592.63
2023-03-21T11:26:16.554Z,97587.19
2023-03-21T11:28:45.313Z,97583.69
2023-03-21T11:31:13.168Z,97592.97
2023-03-21T11:33:44.698Z,97581.00
2023-03-21T11:36:21.168Z,97583.69
2023-03-21T11:38:50.124Z,97574.38
2023-03-21T11:41:25.015Z,97586.41
2023-03-21T11:43:53.372Z,97582.56
2023-03-21T11:46:27.881Z,97599.28
2023-03-21T11:48:56.197Z,97583.03
2023-03-21T11:51:23.520Z,97587.72
2023-03-21T11:54:07.110Z,97586.13
2023-03-21T11:56:54.615Z,97582.66
2023-03-21T11:59:24.871Z,97586.94
2023-03-21T12:02:01.214Z,97588.09
2023-03-21T12:04:28.501Z,97589.28
2023-03-21T12:07:12.849Z,97593.56
2023-03-21T12:09:42.427Z,97590.09
2023-03-21T12:12:15.760Z,97589.31
2023-03-21T12:15:01.463Z,97590.88
2023-03-21T12:17:39.128Z,97580.03
2023-03-21T12:20:12.677Z,97582.75
2023-03-21T12:22:49.618Z,97576.16
2023-03-21T12:25:22.174Z,97583.53
2023-03-21T12:28:08.060Z,97580.06
2023-03-21T12:30:35.461Z,97579.28
2023-03-21T12:33:02.732Z,97574.63
2023-03-21T12:35:48.981Z,97571.53
2023-03-21T12:38:18.481Z,97579.25
2023-03-21T12:40:48.764Z,97578.13
2023-03-21T12:43:34.575Z,97578.13
2023-03-21T12:46:03.772Z,97576.16
2023-03-21T12:48:40.987Z,97581.59
2023-03-21T12:51:19.574Z,97585.47
2023-03-21T12:54:06.355Z,97575.78
2023-03-21T12:56:48.788Z,97588.56
2023-03-21T12:59:30.758Z,97590.53
2023-03-21T13:02:06.571Z,97579.28
2023-03-21T13:04:52.553Z,97578.88
2023-03-21T13:07:22.550Z,97587.78
2023-03-21T13:09:51.666Z,97585.06
2023-03-21T13:12:24.975Z,97576.56
2023-03-21T13:15:21.697Z,97578.84
2023-03-21T13:18:01.575Z,97583.47
2023-03-21T13:20:32.026Z,97576.91
2023-03-21T13:23:00.147Z,97583.84
2023-03-21T13:25:33.451Z,97581.88
2023-03-21T13:28:05.662Z,97580.72
2023-03-21T13:30:34.005Z,97576.84
2023-03-21T13:33:06.324Z,97576.06
2023-03-21T13:35:38.868Z,97578.41
2023-03-21T13:38:18.770Z,97572.19
2023-03-21T13:40:50.668Z,97567.53
2023-03-21T13:43:30.258Z,97571.78
2023-03-21T13:46:05.776Z,97563.25
2023-03-21T13:49:00.531Z,97571.41
2023-03-21T13:51:37.304Z,97556.28
2023-03-21T13:54:19.100Z,97565.94
2023-03-21T13:56:50.448Z,97563.59
2023-03-21T13:59:35.753Z,97562.06
2023-03-21T14:02:12.173Z,97562.03
2023-03-21T14:04:42.628Z,97555.84
2023-03-21T14:07:33.708Z,97553.16
2023-03-21T14:10:05.845Z,97553.16
2023-03-21T14:12:44.270Z,97551.97
2023-03-21T14:15:18.600Z,97556.59
2023-03-21T14:17:55.205Z,97554.25
2023-03-21T14:20:25.737Z,97561.97
2023-03-21T14:22:53.433Z,97553.06
2023-03-21T14:25:23.261Z,97551.13
2023-03-21T14:27:54.490Z,97551.88
2023-03-21T14:30:27.073Z,97549.94
2023-03-21T14:32:55.589Z,97545.31
2023-03-21T14:35:23.190Z,97546.84
2023-03-21T14:37:50.784Z,97542.22
2023-03-21T14:40:21.268Z,97544.13
2023-03-21T14:42:49.663Z,97545.66
2023-03-21T14:45:21.819Z,97543.72
2023-03-21T14:48:07.742Z,97548.72
2023-03-21T14:50:39.643Z,97545.63
2023-03-21T14:53:07.935Z,97546.34
2023-03-21T14:55:41.809Z,97554.47
2023-03-21T14:58:12.120Z,97552.16
2023-03-21T15:00:39.512Z,97552.91
2023-03-21T15:03:06.981Z,97550.19
2023-03-21T15:05:40.903Z,97557.13
2023-03-21T15:08:15.260Z,97552.09
2023-03-21T15:10:43.328Z,97550.50
2023-03-21T15:13:15.388Z,97552.03
2023-03-21T15:15:43.771Z,97545.91
2023-03-21T15:18:13.954Z,97549.03
2023-03-21T15:20:41.600Z,97552.47
2023-03-21T15:23:29.183Z,97552.03
2023-03-21T15:25:56.726Z,97550.47
2023-03-21T15:28:25.867Z,97549.72
2023-03-21T15:30:53.977Z,97549.72
2023-03-21T15:33:23.964Z,97554.34
2023-03-21T15:35:54.541Z,97553.19
2023-03-21T15:38:23.446Z,97552.75
2023-03-21T15:40:52.346Z,97548.50
2023-03-21T15:43:20.257Z,97549.66
2023-03-21T15:45:55.351Z,97557.72
2023-03-21T15:48:26.692Z,97544.56
2023-03-21T15:50:57.291Z,97549.97
2023-03-21T15:53:24.825Z,97551.53
2023-03-21T15:55:53.692Z,97547.63
2023-03-21T15:58:23.402Z,97549.97
2023-03-21T16:00:58.317Z,97549.97
2023-03-21T16:03:33.707Z,97551.53
2023-03-21T16:06:04.477Z,97552.22
2023-03-21T16:08:36.849Z,97546.81
2023-03-21T16:11:17.952Z,97547.56
2023-03-21T16:13:45.605Z,97552.19
2023-03-21T16:16:26.759Z,97555.28
2023-03-21T16:18:55.132Z,97552.16
2023-03-21T16:21:24.679Z,97544.78
2023-03-21T16:23:51.938Z,97554.06
2023-03-21T16:26:21.872Z,97546.72
2023-03-21T16:28:49.236Z,97549.03
2023-03-21T16:31:21.016Z,97538.63
2023-03-21T16:33:49.189Z,97544.78
2023-03-21T16:36:20.877Z,97539.00
2023-03-21T16:38:53.246Z,97548.25
2023-03-21T16:41:21.146Z,97537.81
2023-03-21T16:43:48.615Z,97542.06
2023-03-21T16:46:25.615Z,97535.88
2023-03-21T16:48:57.237Z,97534.72
2023-03-21T16:51:30.716Z,97525.84
2023-03-21T16:53:58.517Z,97518.47
2023-03-21T16:56:46.455Z,97524.28
2023-03-21T16:59:14.252Z,97522.34
2023-03-21T17:01:42.114Z,97532.03
2023-03-21T17:04:09.441Z,97523.16
2023-03-21T17:06:41.045Z,97521.97
2023-03-21T17:09:12.074Z,97521.59
2023-03-21T17:14:23.668Z,97514.25
2023-03-21T17:16:51.461Z,97521.59
2023-03-21T17:19:26.571Z,97509.59
2023-03-21T17:21:55.435Z,97508.03
2023-03-21T17:24:24.177Z,97505.72
2023-03-21T17:26:51.511Z,97501.44
2023-03-21T17:29:18.848Z,97501.06
2023-03-21T17:31:48.541Z,97504.13
2023-03-21T17:34:16.113Z,97500.63
2023-03-21T17:36:44.703Z,97496.38
2023-03-21T17:39:17.295Z,97498.31
2023-03-21T17:41:44.664Z,97493.66
2023-03-21T17:44:11.882Z,97494.44
2023-03-21T17:46:39.594Z,97492.47
2023-03-21T17:49:07.285Z,97492.81
2023-03-21T17:51:35.086Z,97501.69
2023-03-21T17:54:02.419Z,97503.56
2023-03-21T17:56:31.499Z,97494.69
2023-03-21T17:59:00.378Z,97491.97
2023-03-21T18:01:28.176Z,97495.78
2023-03-21T18:04:01.499Z,97488.03
2023-03-21T18:06:28.876Z,97485.69
2023-03-21T18:08:56.444Z,97491.06
2023-03-21T18:11:24.475Z,97489.84
2023-03-21T18:13:51.704Z,97489.03
2023-03-21T18:16:23.174Z,97482.00
2023-03-21T18:18:54.044Z,97482.81
2023-03-21T18:21:22.806Z,97480.84
2023-03-21T18:23:50.496Z,97477.34
2023-03-21T18:26:19.684Z,97474.97
2023-03-21T18:29:09.273Z,97477.28
2023-03-21T18:31:35.220Z,97472.97
2023-03-21T18:34:02.528Z,97470.25
2023-03-21T18:36:29.869Z,97467.19
2023-03-21T18:38:57.619Z,97469.47
2023-03-21T18:41:25.030Z,97472.50
2023-03-21T18:44:01.553Z,97468.56
2023-03-21T18:46:37.115Z,97466.22
2023-03-21T18:49:39.011Z,97468.91
2023-03-21T18:51:52.813Z,97460.41
2023-03-21T18:54:20.836Z,97461.06
2023-03-21T18:57:34.638Z,97465.72
2023-03-21T18:59:39.614Z,97463.41
2023-03-21T19:02:09.610Z,97463.09
2023-03-21T19:04:37.523Z,97463.09
2023-03-21T19:07:05.651Z,97459.22
2023-03-21T19:09:54.783Z,97458.31
2023-03-21T19:12:21.383Z,97458.44
2023-03-21T19:14:48.716Z,97456.09
2023-03-21T19:18:15.322Z,97452.94
2023-03-21T19:20:04.601Z,97450.50
2023-03-21T19:22:32.170Z,97455.19
2023-03-21T19:24:59.494Z,97453.38
2023-03-21T19:27:27.412Z,97448.09
2023-03-21T19:30:10.877Z,97443.88
2023-03-21T19:32:40.933Z,97441.56
2023-03-21T19:35:08.443Z,97436.78
2023-03-21T19:37:36.584Z,97439.44
2023-03-21T19:40:05.652Z,97439.31
2023-03-21T19:42:34.046Z,97436.50
2023-03-21T19:45:01.485Z,97433.53
2023-03-21T19:47:29.998Z,97429.34
2023-03-21T19:52:44.745Z,97420.97
2023-03-21T19:55:12.085Z,97418.28
2023-03-21T19:57:39.427Z,97415.16
2023-03-21T20:00:13.613Z,97407.81
2023-03-21T20:02:41.170Z,97418.19
2023-03-21T20:05:08.659Z,97420.53
2023-03-21T20:07:36.347Z,97410.13
2023-03-21T20:10:03.947Z,97412.06
2023-03-21T20:12:32.987Z,97410.50
2023-03-21T20:15:12.399Z,97401.13
2023-03-21T20:17:44.625Z,97403.88
2023-03-21T20:20:15.178Z,97410.34
2023-03-21T20:23:05.738Z,97403.06
2023-03-21T20:25:30.445Z,97412.66
2023-03-21T20:28:14.526Z,97407.72
2023-03-21T20:30:51.172Z,97404.25
2023-03-21T20:33:18.493Z,97396.94
2023-03-21T20:36:32.183Z,97394.59
2023-03-21T20:38:34.316Z,97394.97
2023-03-21T20:41:02.928Z,97386.94
2023-03-21T20:44:20.488Z,97383.88
2023-03-21T20:46:18.001Z,97391.94
2023-03-21T20:48:49.187Z,97378.06
2023-03-21T20:52:15.192Z,97373.44
2023-03-21T20:54:05.151Z,97377.31
2023-03-21T20:56:32.943Z,97370.75
2023-03-21T20:59:15.283Z,97370.81
2023-03-21T21:01:45.660Z,97372.00
2023-03-21T21:04:19.400Z,97376.28
2023-03-21T21:06:47.794Z,97364.78
2023-03-21T21:09:15.335Z,97367.53
2023-03-21T21:14:29.846Z,97360.13
2023-03-21T21:16:57.135Z,97356.63
2023-03-21T21:19:24.798Z,97354.22
2023-03-21T21:21:52.077Z,97350.41
2023-03-21T21:24:19.443Z,97346.44
2023-03-21T21:26:46.695Z,97345.63
2023-03-21T21:29:17.211Z,97356.75
2023-03-21T21:31:47.050Z,97350.16
2023-03-21T21:34:15.978Z,97351.66
2023-03-21T21:36:45.223Z,97346.19
2023-03-21T21:39:16.414Z,97345.38
2023-03-21T21:41:43.792Z,97347.66
2023-03-21T21:44:11.577Z,97345.72
2023-03-21T21:46:39.123Z,97343.31
2023-03-21T21:49:06.966Z,97341.75
2023-03-21T21:51:35.269Z,97344.44
2023-03-21T21:54:04.759Z,97341.34
2023-03-21T21:56:36.410Z,97343.59
2023-03-21T21:59:05.778Z,97330.91
2023-03-21T22:01:34.962Z,97334.38
2023-03-21T22:04:08.760Z,97334.31
2023-03-21T22:06:35.981Z,97328.09
2023-03-21T22:09:04.774Z,97325.81
2023-03-21T22:11:32.100Z,97323.09
2023-03-21T22:13:59.387Z,97317.34
2023-03-21T22:16:26.728Z,97319.25
2023-03-21T22:18:53.958Z,97311.59
2023-03-21T22:21:21.451Z,97305.09
2023-03-21T22:23:48.859Z,97302.94
2023-03-21T22:26:16.403Z,97307.59
2023-03-21T22:28:43.808Z,97300.31
2023-03-21T22:31:12.578Z,97296.09
2023-03-21T22:33:39.920Z,97295.31
2023-03-21T22:36:07.516Z,97291.53
2023-03-21T22:38:35.244Z,97296.09
2023-03-21T22:41:03.682Z,97286.47
2023-03-21T22:43:34.558Z,97288.38
2023-03-21T22:46:02.906Z,97284.84
2023-03-21T22:48:31.146Z,97284.03
2023-03-21T22:50:59.157Z,97278.16
2023-03-21T22:53:26.848Z,97281.63
2023-03-21T22:55:54.359Z,97278.53
2023-03-21T22:58:21.832Z,97271.88
2023-03-21T23:00:49.118Z,97274.84
2023-03-21T23:03:17.238Z,97267.16
2023-03-21T23:05:45.245Z,97263.09
2023-03-21T23:08:12.909Z,97269.13
2023-03-21T23:10:41.639Z,97263.69
2023-03-21T23:13:09.204Z,97267.50
2023-03-21T23:15:37.013Z,97265.19
2023-03-21T23:18:04.800Z,97266.31
2023-03-21T23:20:32.032Z,97263.16
2023-03-21T23:22:59.312Z,97264.75
2023-03-21T23:25:29.178Z,97263.16
2023-03-21T23:27:56.747Z,97258.88
2023-03-21T23:30:24.712Z,97256.88
2023-03-21T23:32:52.311Z,97252.56
2023-03-21T23:35:19.655Z,97264.06
2023-03-21T23:37:50.228Z,97248.59
2023-03-21T23:40:17.522Z,97255.78
2023-03-21T23:42:44.981Z,97252.41
2023-03-21T23:45:12.201Z,97251.38
2023-03-21T23:47:39.884Z,97247.47
2023-03-21T23:50:08.137Z,97249.31
2023-03-21T23:52:36.108Z,97243.13
2023-03-21T23:55:04.472Z,97241.25
2023-03-21T23:57:32.190Z,97238.50
2023-03-21T23:59:59.471Z,97235.81
